Time;durP1;ratioP1;P1;durP2;ratioP2;P2;SDS_P1;SDS_P2;PMS_P1;PMS_P2;Temp;Humidity;BMP_temperature;BMP_pressure;BME280_temperature;BME280_humidity;BME280_pressure;Samples;Min_cycle;Max_cycle;Signal;HPM_P1;HPM_P2
2023/08/27 00:01:57;;;;;;;1.15;1.15;;;;;;;25.77;66.85;97017.09;5010927;28;20576;-25
2023/08/27 00:04:25;;;;;;;1.08;1.08;;;;;;;25.81;66.52;97015.41;5011529;28;20750;-25
2023/08/27 00:06:51;;;;;;;1.13;1.13;;;;;;;25.82;66.63;97009.38;5011491;28;20304;-25
2023/08/27 00:09:18;;;;;;;1.30;1.20;;;;;;;25.82;66.51;96997.38;5011163;28;20194;-25
2023/08/27 00:11:44;;;;;;;1.10;1.10;;;;;;;25.78;66.60;96990.47;5011275;28;20668;-25
2023/08/27 00:14:11;;;;;;;1.52;1.30;;;;;;;25.82;66.65;97002.53;5011919;28;20195;-25
2023/08/27 00:16:38;;;;;;;1.10;1.10;;;;;;;25.82;66.48;96988.78;5011428;28;20194;-25
2023/08/27 00:19:05;;;;;;;1.10;1.00;;;;;;;25.81;66.73;96984.50;5011619;28;20229;-25
2023/08/27 00:21:32;;;;;;;1.33;1.13;;;;;;;25.81;66.56;96962.19;5011653;28;20199;-25
2023/08/27 00:23:58;;;;;;;1.17;1.08;;;;;;;25.81;66.61;96962.19;5011575;28;20651;-25
2023/08/27 00:26:25;;;;;;;1.00;1.00;;;;;;;25.82;66.65;96963.03;5010767;28;20688;-25
2023/08/27 00:28:51;;;;;;;1.30;1.20;;;;;;;25.82;66.87;96963.03;5011086;28;20248;-25
2023/08/27 00:31:18;;;;;;;1.20;1.10;;;;;;;25.81;66.73;96969.91;5010821;28;20273;-25
2023/08/27 00:33:44;;;;;;;1.10;1.08;;;;;;;25.81;66.76;96962.19;5010854;28;20202;-25
2023/08/27 00:36:11;;;;;;;1.10;1.10;;;;;;;25.81;66.42;96958.75;5010992;28;20293;-25
2023/08/27 00:38:37;;;;;;;1.30;1.20;;;;;;;25.81;66.57;96969.91;5010807;28;20226;-25
2023/08/27 00:41:04;;;;;;;1.20;1.15;;;;;;;25.81;66.34;96969.06;5014083;28;20222;-25
2023/08/27 00:43:31;;;;;;;1.27;1.17;;;;;;;25.80;66.72;96970.75;5014546;28;20221;-25
2023/08/27 00:45:57;;;;;;;1.83;1.20;;;;;;;25.81;66.59;96964.75;5014921;28;20253;-25
2023/08/27 00:48:24;;;;;;;1.40;1.30;;;;;;;25.80;66.59;96949.28;5012542;28;20218;-25
2023/08/27 00:50:50;;;;;;;1.17;1.10;;;;;;;25.80;66.43;96950.16;5012668;28;20194;-25
2023/08/27 00:53:18;;;;;;;1.27;1.17;;;;;;;25.79;66.45;96945.88;5011697;28;20269;-25
2023/08/27 00:55:44;;;;;;;1.07;1.07;;;;;;;25.78;66.47;96946.72;5013037;28;20661;-25
2023/08/27 00:58:11;;;;;;;1.23;1.10;;;;;;;25.78;66.79;96941.56;5014377;28;20308;-25
2023/08/27 01:00:37;;;;;;;1.10;1.10;;;;;;;25.76;66.87;96934.72;5018419;28;20219;-25
2023/08/27 01:03:05;;;;;;;1.30;1.20;;;;;;;25.77;66.64;96936.41;4995976;28;20202;-25
2023/08/27 01:05:32;;;;;;;1.20;1.10;;;;;;;25.78;66.56;96933.00;5011798;28;20205;-25
2023/08/27 01:08:25;;;;;;;1.10;1.10;;;;;;;25.68;66.63;96911.53;5012493;28;20325;-25
2023/08/27 01:11:01;;;;;;;1.10;1.10;;;;;;;25.76;66.86;96922.72;4998670;28;20257;-25
2023/08/27 01:13:53;;;;;;;1.00;1.00;;;;;;;25.75;66.71;96926.13;5012623;28;20225;-25
2023/08/27 01:16:20;;;;;;;1.13;1.10;;;;;;;25.76;66.88;96911.53;4998709;28;20260;-25
2023/08/27 01:18:48;;;;;;;1.10;1.10;;;;;;;25.73;66.92;96907.25;5012227;28;20225;-25
2023/08/27 01:21:21;;;;;;;1.27;1.20;;;;;;;25.75;67.06;96914.97;4996119;28;20241;-25
2023/08/27 01:23:48;;;;;;;1.13;1.13;;;;;;;25.75;67.14;96897.81;5013858;28;20688;-25
2023/08/27 01:26:20;;;;;;;1.40;1.30;;;;;;;25.76;67.27;96899.53;5013924;28;20241;-25
2023/08/27 01:28:48;;;;;;;1.23;1.00;;;;;;;25.76;66.93;96896.09;5013907;28;20254;-25
2023/08/27 01:31:19;;;;;;;0.97;0.97;;;;;;;25.76;67.37;96880.66;5011866;28;20272;-25
2023/08/27 01:33:46;;;;;;;1.10;1.10;;;;;;;25.69;67.00;96872.03;5013811;28;20198;-25
2023/08/27 01:36:13;;;;;;;1.37;1.27;;;;;;;25.77;67.05;96893.53;4996696;28;20574;-25
2023/08/27 01:38:40;;;;;;;1.10;1.10;;;;;;;25.77;67.08;96890.94;5012268;28;20721;-25
2023/08/27 01:41:06;;;;;;;1.13;1.10;;;;;;;25.77;66.98;96883.22;5011382;28;20716;-25
2023/08/27 01:43:33;;;;;;;1.10;1.10;;;;;;;25.77;67.04;96878.09;5013540;28;20225;-25
2023/08/27 01:46:00;;;;;;;1.30;1.20;;;;;;;25.78;67.26;96884.94;5013701;28;20241;-25
2023/08/27 01:48:26;;;;;;;1.30;1.20;;;;;;;25.78;67.09;96882.38;5012104;28;20246;-25
2023/08/27 01:50:53;;;;;;;1.10;1.10;;;;;;;25.78;67.34;96876.38;5012653;28;20194;-25
2023/08/27 01:53:20;;;;;;;1.20;1.20;;;;;;;25.77;67.27;96875.50;5012834;28;20212;-26
2023/08/27 01:55:46;;;;;;;1.10;1.10;;;;;;;25.77;67.42;96860.06;5013772;28;20257;-25
2023/08/27 01:58:13;;;;;;;2.90;1.20;;;;;;;25.79;67.38;96857.50;5013286;28;20246;-25
2023/08/27 02:00:39;;;;;;;1.33;1.27;;;;;;;25.78;67.18;96861.78;5013033;28;20284;-25
2023/08/27 02:03:06;;;;;;;0.90;0.90;;;;;;;25.78;67.62;96873.81;5013124;28;20206;-25
2023/08/27 02:05:33;;;;;;;1.10;1.10;;;;;;;25.79;67.42;96866.09;5013107;28;20214;-25
2023/08/27 02:07:59;;;;;;;1.27;1.17;;;;;;;25.77;67.37;96862.63;5013220;28;20895;-25
2023/08/27 02:10:26;;;;;;;1.00;1.00;;;;;;;25.76;67.24;96853.22;5011847;28;20631;-25
2023/08/27 02:12:52;;;;;;;1.10;1.10;;;;;;;25.78;67.32;96859.19;5013099;28;20230;-25
2023/08/27 02:15:19;;;;;;;1.10;1.10;;;;;;;25.79;67.38;96865.22;5012685;28;20589;-25
2023/08/27 02:17:45;;;;;;;1.10;1.10;;;;;;;25.78;67.23;96869.50;5012106;28;20226;-25
2023/08/27 02:20:12;;;;;;;1.40;1.30;;;;;;;25.72;67.28;96871.22;5011948;28;20317;-25
2023/08/27 02:22:39;;;;;;;1.23;1.10;;;;;;;25.79;67.33;96899.56;5011535;28;20203;-25
2023/08/27 02:25:06;;;;;;;1.13;1.13;;;;;;;25.79;67.31;96920.16;5012125;28;20198;-25
2023/08/27 02:27:32;;;;;;;1.10;1.10;;;;;;;25.79;67.50;96938.16;5010657;28;20222;-25
2023/08/27 02:29:59;;;;;;;1.00;1.00;;;;;;;25.80;67.58;96949.28;5011040;28;20194;-25
2023/08/27 02:32:25;;;;;;;1.10;1.10;;;;;;;25.80;67.56;96941.56;5012121;28;20562;-25
2023/08/27 02:34:52;;;;;;;1.00;1.00;;;;;;;25.79;67.33;96925.28;5012055;28;20209;-25
2023/08/27 02:39:46;;;;;;;1.23;1.20;;;;;;;25.80;67.50;96902.97;5027928;28;20684;-23
2023/08/27 02:42:13;;;;;;;1.00;1.00;;;;;;;25.79;67.52;96899.56;5023339;28;20285;-24
2023/08/27 02:44:39;;;;;;;1.10;1.10;;;;;;;25.80;67.48;96884.94;5030568;28;20205;-23
2023/08/27 02:47:06;;;;;;;1.00;1.00;;;;;;;25.80;67.42;96882.38;5031245;28;20209;-24
2023/08/27 02:49:33;;;;;;;0.80;0.80;;;;;;;25.80;67.63;96888.38;5029390;28;20310;-23
2023/08/27 02:51:59;;;;;;;1.00;1.00;;;;;;;25.80;67.67;96890.97;5044742;28;20660;-29
2023/08/27 02:54:26;;;;;;;1.00;1.00;;;;;;;25.80;67.36;96887.53;5046596;28;20299;-23
2023/08/27 02:56:52;;;;;;;1.13;1.13;;;;;;;25.73;67.68;96881.50;5033107;28;20350;-23
2023/08/27 02:59:19;;;;;;;0.95;0.95;;;;;;;25.81;67.42;96886.69;5037490;28;20227;-23
2023/08/27 03:01:45;;;;;;;1.00;1.00;;;;;;;25.81;67.78;96868.66;5035251;28;20507;-23
2023/08/27 03:04:12;;;;;;;1.10;1.10;;;;;;;25.80;67.46;96870.38;5031877;28;20677;-23
2023/08/27 03:06:39;;;;;;;1.10;1.08;;;;;;;25.81;67.67;96874.66;5042914;28;20254;-23
2023/08/27 03:09:05;;;;;;;1.02;1.02;;;;;;;25.80;67.81;96872.06;5034772;28;20217;-24
2023/08/27 03:11:32;;;;;;;1.10;1.00;;;;;;;25.80;67.62;96865.22;5038997;28;20304;-24
2023/08/27 03:13:58;;;;;;;1.20;1.10;;;;;;;25.81;67.59;96864.34;5048564;28;20224;-24
2023/08/27 03:16:25;;;;;;;1.03;1.03;;;;;;;25.81;67.70;96876.38;5036170;28;20202;-23
2023/08/27 03:18:52;;;;;;;1.00;1.00;;;;;;;25.75;67.60;96866.91;5037870;28;20616;-23
2023/08/27 03:21:18;;;;;;;1.00;1.00;;;;;;;25.81;67.77;96887.53;5035713;28;20264;-24
2023/08/27 03:23:45;;;;;;;1.07;1.07;;;;;;;25.81;67.70;96892.66;5031904;28;20209;-23
2023/08/27 03:26:12;;;;;;;1.00;1.00;;;;;;;25.81;67.70;96902.97;5039610;28;20201;-23
2023/08/27 03:28:39;;;;;;;1.00;1.00;;;;;;;25.81;67.61;96908.13;5039914;28;20220;-23
2023/08/27 03:31:05;;;;;;;1.10;1.10;;;;;;;25.82;67.46;96906.41;5044157;28;20200;-23
2023/08/27 03:33:32;;;;;;;1.20;1.20;;;;;;;25.82;67.45;96909.00;5039992;28;20252;-23
2023/08/27 03:35:59;;;;;;;1.03;1.03;;;;;;;25.82;67.79;96909.00;5031329;28;20198;-23
2023/08/27 03:38:26;;;;;;;1.07;1.07;;;;;;;25.81;67.79;96902.97;5033949;28;20229;-23
2023/08/27 03:40:53;;;;;;;1.10;1.10;;;;;;;25.82;67.56;96903.84;5031138;28;20249;-24
2023/08/27 03:43:19;;;;;;;1.00;1.00;;;;;;;25.82;67.61;96911.56;5034742;28;20568;-23
2023/08/27 03:45:46;;;;;;;0.90;0.90;;;;;;;25.82;67.91;96903.84;5048481;28;20232;-24
2023/08/27 03:48:13;;;;;;;1.10;1.00;;;;;;;25.82;67.75;96911.56;5040669;28;20225;-23
2023/08/27 03:50:39;;;;;;;1.30;1.20;;;;;;;25.77;67.60;96900.38;5034331;28;20663;-24
2023/08/27 03:53:06;;;;;;;1.00;1.00;;;;;;;25.82;67.54;96902.13;5034949;28;20209;-23
2023/08/27 03:55:39;;;;;;;0.90;0.90;;;;;;;25.82;67.44;96901.25;5035395;28;20287;-23
2023/08/27 03:58:09;;;;;;;0.90;0.90;;;;;;;25.82;67.62;96904.72;5034911;28;20225;-23
2023/08/27 04:00:36;;;;;;;1.10;1.10;;;;;;;25.81;67.72;96892.66;5033877;28;20235;-23
2023/08/27 04:03:04;;;;;;;1.17;1.10;;;;;;;25.77;67.79;96887.50;5037360;28;20201;-23
2023/08/27 04:05:31;;;;;;;1.20;1.10;;;;;;;25.82;67.91;96899.56;5032229;28;20209;-23
2023/08/27 04:07:58;;;;;;;1.00;1.00;;;;;;;25.82;67.74;96902.13;5034919;28;20221;-23
2023/08/27 04:10:24;;;;;;;1.07;1.07;;;;;;;25.83;67.68;96905.53;5037828;28;20656;-23
2023/08/27 04:12:51;;;;;;;1.10;1.00;;;;;;;25.82;67.57;96899.56;5039722;28;20212;-23
2023/08/27 04:15:17;;;;;;;0.90;0.90;;;;;;;25.83;67.89;96900.41;5045323;28;20237;-23
2023/08/27 04:17:44;;;;;;;1.00;1.00;;;;;;;25.83;67.82;96906.41;5039163;28;20271;-23
2023/08/27 04:20:11;;;;;;;1.00;1.00;;;;;;;25.83;68.00;96905.53;5041781;28;20227;-23
2023/08/27 04:22:38;;;;;;;0.90;0.90;;;;;;;25.83;67.81;96906.41;5040931;28;20205;-23
2023/08/27 04:25:05;;;;;;;1.00;1.00;;;;;;;25.83;67.74;96903.84;5028004;28;20201;-23
2023/08/27 04:27:33;;;;;;;1.00;1.00;;;;;;;25.83;68.02;96909.00;5032275;28;20251;-23
2023/08/27 04:30:00;;;;;;;1.00;1.00;;;;;;;25.83;67.57;96910.69;5035709;28;20285;-23
2023/08/27 04:32:27;;;;;;;1.10;1.10;;;;;;;25.83;67.77;96902.97;5033450;28;20631;-23
2023/08/27 04:34:53;;;;;;;0.95;0.95;;;;;;;25.83;67.53;96896.13;5036065;28;20209;-23
2023/08/27 04:37:20;;;;;;;1.00;1.00;;;;;;;25.84;67.84;96904.72;5036888;28;20232;-23
2023/08/27 04:39:47;;;;;;;1.00;1.00;;;;;;;25.83;67.57;96906.41;5037027;28;20659;-23
2023/08/27 04:42:13;;;;;;;1.00;1.00;;;;;;;25.81;67.98;96904.72;5035258;28;20713;-29
2023/08/27 04:44:40;;;;;;;1.03;1.03;;;;;;;25.83;67.66;96903.84;5035792;28;20205;-23
2023/08/27 04:47:07;;;;;;;1.00;1.00;;;;;;;25.84;67.89;96904.72;5033784;28;20212;-23
2023/08/27 04:49:33;;;;;;;1.10;1.00;;;;;;;25.85;67.58;96904.72;5031420;28;20237;-23
2023/08/27 04:52:00;;;;;;;1.17;1.10;;;;;;;25.85;67.81;96912.44;5035802;28;20205;-25
2023/08/27 04:54:26;;;;;;;1.17;1.07;;;;;;;25.85;67.31;96912.44;5032181;28;20205;-23
2023/08/27 04:56:53;;;;;;;1.13;1.07;;;;;;;25.84;67.53;96908.13;5034432;28;20229;-23
2023/08/27 04:59:19;;;;;;;1.00;1.00;;;;;;;25.84;67.51;96907.28;5034798;28;20319;-23
2023/08/27 05:01:46;;;;;;;1.30;1.20;;;;;;;25.85;67.66;96914.16;5036755;28;20325;-23
2023/08/27 05:04:12;;;;;;;1.00;1.00;;;;;;;25.85;67.86;96921.88;5034265;28;20209;-23
2023/08/27 05:06:39;;;;;;;1.20;1.10;;;;;;;25.84;67.75;96915.00;5036534;28;20301;-23
2023/08/27 05:09:06;;;;;;;1.10;1.10;;;;;;;25.84;67.45;96923.56;5033786;28;20232;-23
2023/08/27 05:11:32;;;;;;;2.97;1.17;;;;;;;25.83;67.70;96927.00;5031201;28;20201;-23
2023/08/27 05:13:59;;;;;;;1.13;1.10;;;;;;;25.77;67.63;96913.25;5034144;28;20579;-23
2023/08/27 05:16:25;;;;;;;1.00;1.00;;;;;;;25.83;67.61;96924.44;5035117;28;20780;-23
2023/08/27 05:18:52;;;;;;;1.10;1.10;;;;;;;25.83;67.59;96932.16;5035734;28;20644;-23
2023/08/27 05:21:18;;;;;;;1.00;1.00;;;;;;;25.84;67.77;96935.59;5034608;28;20237;-23
2023/08/27 05:23:45;;;;;;;1.00;1.00;;;;;;;25.83;67.77;96939.88;5034870;28;20263;-23
2023/08/27 05:26:11;;;;;;;1.00;1.00;;;;;;;25.84;67.71;96933.03;5035171;28;20657;-23
2023/08/27 05:28:38;;;;;;;1.17;1.17;;;;;;;25.84;67.68;96939.00;5035607;28;20317;-23
2023/08/27 05:31:05;;;;;;;1.10;1.10;;;;;;;25.83;67.64;96937.31;5033821;28;20205;-23
2023/08/27 05:33:31;;;;;;;1.10;1.00;;;;;;;25.84;67.66;96945.91;5034399;28;20257;-25
2023/08/27 05:35:58;;;;;;;1.10;1.00;;;;;;;25.83;67.56;96942.47;5035997;28;20209;-23
2023/08/27 05:38:24;;;;;;;0.97;0.97;;;;;;;25.84;67.85;96943.31;5035719;28;20327;-28
2023/08/27 05:40:51;;;;;;;1.00;1.00;;;;;;;25.84;67.80;96944.16;5032081;28;20221;-23
2023/08/27 05:43:18;;;;;;;1.20;1.10;;;;;;;25.84;67.75;96944.16;5037717;28;20206;-23
2023/08/27 05:45:44;;;;;;;1.00;1.00;;;;;;;25.83;67.80;96939.88;5033742;28;20208;-24
2023/08/27 05:48:11;;;;;;;1.20;1.10;;;;;;;25.83;67.69;96934.72;5034194;28;20302;-23
2023/08/27 05:50:38;;;;;;;1.10;1.10;;;;;;;25.84;67.89;96938.19;5031032;28;20874;-23
2023/08/27 05:53:05;;;;;;;1.00;1.00;;;;;;;25.84;67.83;96935.59;5031836;28;20209;-23
2023/08/27 05:55:32;;;;;;;1.00;1.00;;;;;;;25.80;67.85;96924.44;5032470;28;20220;-23
2023/08/27 05:57:59;;;;;;;1.10;1.10;;;;;;;25.84;67.79;96918.41;5034567;28;20524;-23
2023/08/27 06:00:27;;;;;;;1.00;1.00;;;;;;;25.83;67.58;96927.00;5029381;28;20287;-23
2023/08/27 06:02:53;;;;;;;1.00;1.00;;;;;;;25.83;67.69;96921.84;5035322;28;20298;-23
2023/08/27 06:05:20;;;;;;;0.90;0.90;;;;;;;25.83;67.93;96927.00;5035008;28;20210;-23
2023/08/27 06:07:46;;;;;;;1.00;1.00;;;;;;;25.83;67.96;96937.31;5034244;28;20233;-30
2023/08/27 06:10:13;;;;;;;0.90;0.90;;;;;;;25.83;67.81;96923.56;5034813;28;20259;-23
2023/08/27 06:12:39;;;;;;;1.30;1.20;;;;;;;25.83;67.64;96926.13;5033127;28;20229;-23
2023/08/27 06:15:07;;;;;;;1.00;1.00;;;;;;;25.83;67.96;96928.72;5032598;28;20217;-23
2023/08/27 06:17:33;;;;;;;0.97;0.97;;;;;;;25.83;67.54;96939.88;5031190;28;20225;-23
2023/08/27 06:20:00;;;;;;;0.93;0.93;;;;;;;25.83;67.83;96934.72;5033302;28;20209;-23
2023/08/27 06:22:27;;;;;;;1.20;1.10;;;;;;;25.82;67.91;96940.75;5032113;28;20221;-24
2023/08/27 06:24:53;;;;;;;1.10;1.00;;;;;;;25.82;67.55;96934.72;5031723;28;20221;-23
2023/08/27 06:27:20;;;;;;;1.20;1.10;;;;;;;25.83;67.82;96939.00;5034066;28;20233;-23
2023/08/27 06:29:47;;;;;;;1.00;1.00;;;;;;;25.83;67.82;96945.03;5033785;28;20224;-23
2023/08/27 06:32:13;;;;;;;1.00;1.00;;;;;;;25.83;67.68;96939.00;5033401;28;20206;-23
2023/08/27 06:34:40;;;;;;;1.40;1.30;;;;;;;25.82;67.86;96938.19;5029697;28;20590;-24
2023/08/27 06:37:07;;;;;;;1.30;1.20;;;;;;;25.82;67.87;96945.91;5032831;28;21006;-23
2023/08/27 06:39:33;;;;;;;1.00;1.00;;;;;;;25.83;67.88;96949.31;5031005;28;20814;-23
2023/08/27 06:42:00;;;;;;;1.10;1.10;;;;;;;25.83;67.75;96946.72;5030815;28;21430;-24
2023/08/27 06:44:26;;;;;;;1.50;1.40;;;;;;;25.82;65.97;96952.75;5031814;28;20708;-23
2023/08/27 06:46:53;;;;;;;8.15;2.05;;;;;;;25.82;67.55;96947.59;5029091;28;20240;-25
2023/08/27 06:49:20;;;;;;;3.13;2.13;;;;;;;25.81;68.17;96946.72;5030768;28;20241;-23
2023/08/27 06:51:46;;;;;;;2.60;2.40;;;;;;;25.80;68.84;96942.44;5031442;28;20251;-23
2023/08/27 06:54:13;;;;;;;2.20;2.00;;;;;;;25.80;68.79;96937.28;5033436;28;20201;-23
2023/08/27 06:56:40;;;;;;;2.40;2.07;;;;;;;25.81;68.75;96938.16;5032505;28;20567;-25
2023/08/27 06:59:07;;;;;;;2.17;2.00;;;;;;;25.79;68.71;96939.88;5033075;28;20237;-23
2023/08/27 07:01:33;;;;;;;1.90;1.80;;;;;;;25.78;68.98;96933.84;5033591;28;20252;-23
2023/08/27 07:04:02;;;;;;;1.90;1.80;;;;;;;25.77;68.92;96923.53;5034432;28;20662;-23
2023/08/27 07:06:29;;;;;;;2.03;1.83;;;;;;;25.76;69.01;96925.28;5032238;28;20643;-23
2023/08/27 07:08:56;;;;;;;2.20;2.00;;;;;;;25.75;68.46;96922.72;5035207;28;20248;-23
2023/08/27 07:11:22;;;;;;;1.70;1.60;;;;;;;25.74;68.70;96918.38;5034165;28;20267;-23
2023/08/27 07:13:49;;;;;;;2.73;1.70;;;;;;;25.73;68.65;96911.53;5039494;28;20303;-23
2023/08/27 07:16:16;;;;;;;2.00;1.80;;;;;;;25.69;68.63;96902.09;5035042;28;20305;-23
2023/08/27 07:18:43;;;;;;;2.90;1.77;;;;;;;25.71;68.74;96903.81;5040794;28;20236;-23
2023/08/27 07:21:09;;;;;;;1.87;1.70;;;;;;;25.71;69.30;96906.38;5032687;28;20226;-23
2023/08/27 07:23:36;;;;;;;1.80;1.70;;;;;;;25.70;68.91;96909.81;5039195;28;20294;-26
2023/08/27 07:26:03;;;;;;;2.30;1.80;;;;;;;25.69;69.16;96914.97;5034102;28;20271;-23
2023/08/27 07:28:31;;;;;;;3.50;2.10;;;;;;;25.69;69.27;96915.81;5032221;28;20225;-25
2023/08/27 07:30:57;;;;;;;2.03;1.80;;;;;;;25.68;69.35;96908.06;5044006;28;20695;-23
2023/08/27 07:33:24;;;;;;;2.92;1.73;;;;;;;25.68;68.71;96908.06;5043683;28;20212;-23
2023/08/27 07:35:51;;;;;;;1.60;1.50;;;;;;;25.66;68.71;96902.06;5044548;28;20205;-23
2023/08/27 07:38:17;;;;;;;1.70;1.60;;;;;;;25.66;68.70;96909.78;5037479;28;20311;-23
2023/08/27 07:40:43;;;;;;;2.47;1.70;;;;;;;25.64;68.98;96909.78;5040164;28;20225;-23
2023/08/27 07:43:10;;;;;;;2.67;1.90;;;;;;;25.63;69.16;96907.19;5033935;28;20202;-24
2023/08/27 07:45:37;;;;;;;2.27;1.70;;;;;;;25.62;68.86;96898.63;5040786;28;20196;-23
2023/08/27 07:48:04;;;;;;;5.90;1.80;;;;;;;25.62;68.71;96905.47;5038421;28;20223;-23
2023/08/27 07:50:31;;;;;;;2.27;1.70;;;;;;;25.55;69.04;96890.88;5039574;28;20617;-24
2023/08/27 07:52:57;;;;;;;3.20;1.70;;;;;;;25.60;68.87;96905.47;5041097;28;20197;-23
2023/08/27 07:55:24;;;;;;;1.97;1.43;;;;;;;25.62;69.02;96908.06;5036593;28;20247;-23
2023/08/27 07:57:50;;;;;;;1.73;1.63;;;;;;;25.61;69.25;96914.91;5044437;28;20270;-23
2023/08/27 08:00:18;;;;;;;2.90;1.57;;;;;;;25.60;69.17;96917.47;5038243;28;20562;-26
2023/08/27 08:02:44;;;;;;;2.40;1.60;;;;;;;25.60;69.52;96922.63;5052929;28;20617;-23
2023/08/27 08:05:11;;;;;;;1.80;1.70;;;;;;;25.59;69.65;96921.78;5043120;28;20201;-23
2023/08/27 08:07:38;;;;;;;1.93;1.63;;;;;;;25.59;69.55;96918.34;5040221;28;20291;-23
2023/08/27 08:10:05;;;;;;;3.57;2.00;;;;;;;25.57;69.73;96922.59;5041659;28;20209;-23
2023/08/27 08:12:31;;;;;;;3.00;1.70;;;;;;;25.56;69.76;96916.63;5046173;28;20667;-23
2023/08/27 08:14:58;;;;;;;3.03;1.57;;;;;;;25.55;69.76;96924.34;5038367;28;20225;-23
2023/08/27 08:17:24;;;;;;;3.57;1.77;;;;;;;25.55;69.85;96920.03;5046452;28;20240;-23
2023/08/27 08:20:10;;;;;;;6.57;1.73;;;;;;;25.54;70.04;96918.31;5045563;28;20746;-23
2023/08/27 08:22:37;;;;;;;6.27;2.10;;;;;;;25.52;69.93;96919.19;5041376;28;20290;-23
2023/08/27 08:25:04;;;;;;;4.57;1.80;;;;;;;25.53;69.94;96926.91;5048591;28;20292;-23
2023/08/27 08:27:30;;;;;;;4.53;2.20;;;;;;;25.52;70.29;96922.59;5045213;28;20259;-24
2023/08/27 08:29:57;;;;;;;12.47;2.00;;;;;;;25.52;70.25;96919.19;5043648;28;20289;-23
2023/08/27 08:32:23;;;;;;;2.83;1.97;;;;;;;25.52;70.31;96924.31;5041952;28;20205;-26
2023/08/27 08:34:50;;;;;;;9.57;2.00;;;;;;;25.51;70.00;96926.03;5032489;28;20218;-23
2023/08/27 08:37:17;;;;;;;6.37;2.30;;;;;;;25.51;70.21;96932.88;5038475;28;20214;-28
2023/08/27 08:39:43;;;;;;;7.33;2.07;;;;;;;25.50;70.18;96931.16;5036134;28;20208;-25
2023/08/27 08:42:18;;;;;;;6.20;1.90;;;;;;;25.49;70.41;96932.03;5036105;28;20249;-23
2023/08/27 08:44:54;;;;;;;10.67;2.17;;;;;;;25.44;70.34;96923.41;5016019;28;20540;-23
2023/08/27 08:47:21;;;;;;;4.87;1.90;;;;;;;25.48;70.05;96936.31;5030738;28;20212;-24
2023/08/27 08:49:50;;;;;;;6.43;2.13;;;;;;;25.33;70.39;96925.06;5033394;28;20263;-23
2023/08/27 08:52:18;;;;;;;5.37;1.83;;;;;;;25.47;70.06;96951.72;5014841;28;20296;-22
2023/08/27 08:54:45;;;;;;;3.00;1.90;;;;;;;25.47;70.04;96955.19;5034256;28;20239;-23
2023/08/27 08:57:11;;;;;;;2.17;1.80;;;;;;;25.32;70.31;96936.19;5035779;28;20843;-23
2023/08/27 08:59:38;;;;;;;4.10;1.87;;;;;;;25.46;70.17;96973.19;5017322;28;20291;-26
2023/08/27 09:02:05;;;;;;;5.53;1.90;;;;;;;25.41;70.50;96968.00;5032506;28;20316;-23
2023/08/27 09:04:31;;;;;;;4.27;1.87;;;;;;;25.41;70.71;96969.72;5022263;28;20237;-23
2023/08/27 09:06:58;;;;;;;2.93;1.70;;;;;;;25.40;70.27;96970.56;5005425;28;20519;-23
2023/08/27 09:09:24;;;;;;;5.03;2.20;;;;;;;25.39;70.60;96968.84;5035701;28;20315;-26
2023/08/27 09:11:51;;;;;;;7.23;2.23;;;;;;;25.45;70.30;96986.88;5031851;28;20225;-23
2023/08/27 09:14:20;;;;;;;4.43;1.60;;;;;;;25.45;70.09;96984.31;5033937;28;20240;-23
2023/08/27 09:16:46;;;;;;;3.37;1.80;;;;;;;25.44;70.62;96982.59;5036505;28;20231;-24
2023/08/27 09:19:13;;;;;;;3.43;1.50;;;;;;;25.44;70.31;96985.16;5034795;28;20233;-23
2023/08/27 09:21:41;;;;;;;4.63;1.70;;;;;;;25.44;70.20;96990.31;5034229;28;20247;-23
2023/08/27 09:24:07;;;;;;;2.60;2.17;;;;;;;25.43;70.49;96989.44;5032963;28;20726;-23
2023/08/27 09:26:34;;;;;;;4.00;1.97;;;;;;;25.43;70.53;96992.00;5032006;28;20325;-24
2023/08/27 09:29:01;;;;;;;5.17;2.00;;;;;;;25.44;70.49;96990.31;5036788;28;20230;-23
2023/08/27 09:31:41;;;;;;;1.93;1.67;;;;;;;25.44;70.48;96998.03;5031944;28;20202;-23
2023/08/27 09:34:08;;;;;;;4.70;1.80;;;;;;;25.43;70.29;96996.31;5038758;28;20212;-23
2023/08/27 09:36:36;;;;;;;1.43;1.33;;;;;;;25.43;70.21;96983.47;5037175;28;20217;-23
2023/08/27 09:39:10;;;;;;;4.47;1.77;;;;;;;25.42;70.24;96987.72;5034754;28;20234;-24
2023/08/27 09:41:46;;;;;;;2.83;1.50;;;;;;;25.43;70.40;96978.31;5034232;28;20244;-23
2023/08/27 09:44:16;;;;;;;4.87;1.87;;;;;;;25.43;70.19;96970.59;5035694;28;20659;-23
2023/08/27 09:46:43;;;;;;;3.53;1.70;;;;;;;25.43;69.80;96971.44;5033960;28;20308;-23
2023/08/27 09:49:10;;;;;;;4.53;1.80;;;;;;;25.36;69.92;96951.69;5033573;28;20300;-23
2023/08/27 09:51:39;;;;;;;1.90;1.40;;;;;;;25.43;70.50;96971.44;5030852;28;20206;-23
2023/08/27 09:54:29;;;;;;;2.83;1.80;;;;;;;25.43;70.42;96968.03;5032563;28;20216;-23
2023/08/27 09:57:01;;;;;;;2.37;1.70;;;;;;;25.42;70.44;96966.28;5034078;28;20213;-23
2023/08/27 09:59:30;;;;;;;3.50;1.60;;;;;;;25.40;70.45;96974.00;5035048;28;20225;-24
2023/08/27 10:01:56;;;;;;;2.97;1.60;;;;;;;25.41;70.27;96967.13;5034927;28;20220;-23
2023/08/27 10:04:23;;;;;;;2.13;1.63;;;;;;;25.41;70.59;96972.28;5035096;28;20208;-24
2023/08/27 10:06:49;;;;;;;2.13;1.53;;;;;;;25.40;70.70;96976.56;5035293;28;20739;-26
2023/08/27 10:09:16;;;;;;;1.87;1.70;;;;;;;25.23;70.45;96949.00;5029803;28;20711;-23
2023/08/27 10:11:44;;;;;;;2.47;1.57;;;;;;;25.39;70.55;96956.84;5032832;28;20264;-23
2023/08/27 10:14:11;;;;;;;2.77;1.60;;;;;;;25.39;70.38;96969.72;5034442;28;20563;-23
2023/08/27 10:16:38;;;;;;;1.60;1.50;;;;;;;25.39;68.30;96956.84;5015454;28;20209;-23
2023/08/27 10:19:04;;;;;;;1.70;1.60;;;;;;;25.38;68.40;96952.56;5031586;28;20315;-23
2023/08/27 10:21:31;;;;;;;1.90;1.60;;;;;;;25.40;69.97;96957.72;5030362;28;20285;-23
2023/08/27 10:23:57;;;;;;;3.60;1.50;;;;;;;25.41;69.96;96949.13;5032938;28;21163;-33
2023/08/27 10:26:24;;;;;;;1.57;1.47;;;;;;;25.40;70.40;96940.53;5030191;28;20206;-23
2023/08/27 10:28:51;;;;;;;1.70;1.50;;;;;;;25.40;70.17;96940.53;5031410;28;20719;-24
2023/08/27 10:31:17;;;;;;;1.60;1.50;;;;;;;25.41;70.19;96938.84;5032527;28;20209;-23
2023/08/27 10:33:44;;;;;;;2.17;1.37;;;;;;;25.41;70.61;96932.00;5033865;28;20213;-23
2023/08/27 10:36:20;;;;;;;1.60;1.40;;;;;;;25.37;70.52;96919.94;5030577;28;20205;-23
2023/08/27 10:38:50;;;;;;;2.15;1.58;;;;;;;25.22;70.30;96896.69;5034929;28;20262;-23
2023/08/27 10:41:21;;;;;;;2.30;1.50;;;;;;;25.38;70.29;96921.69;5021862;28;20649;-23
2023/08/27 10:43:48;;;;;;;2.73;1.60;;;;;;;25.42;70.33;96919.97;5032181;28;20589;-26
2023/08/27 10:46:15;;;;;;;1.77;1.50;;;;;;;25.41;70.41;96921.72;5032108;28;20262;-23
2023/08/27 10:48:47;;;;;;;3.33;1.67;;;;;;;25.41;70.36;96919.13;5029987;28;20590;-23
2023/08/27 10:51:15;;;;;;;1.47;1.27;;;;;;;25.42;70.09;96912.25;5028618;28;20201;-23
2023/08/27 10:53:50;;;;;;;1.77;1.50;;;;;;;25.42;69.96;96915.69;5034442;28;20206;-23
2023/08/27 10:56:44;;;;;;;1.60;1.50;;;;;;;25.42;69.83;96914.81;5033955;28;20208;-23
2023/08/27 10:59:27;;;;;;;1.50;1.40;;;;;;;25.43;69.80;96922.56;5027866;28;20282;-23
2023/08/27 11:01:53;;;;;;;1.77;1.33;;;;;;;25.42;70.32;96920.84;5033544;28;20585;-23
2023/08/27 11:04:20;;;;;;;1.50;1.40;;;;;;;25.42;70.18;96927.69;5032482;28;20304;-23
2023/08/27 11:06:48;;;;;;;1.50;1.40;;;;;;;25.41;70.27;96924.28;5031386;28;20297;-23
2023/08/27 11:09:29;;;;;;;1.92;1.30;;;;;;;25.40;70.25;96932.81;5031357;28;20224;-23
2023/08/27 11:11:59;;;;;;;1.40;1.30;;;;;;;25.41;70.19;96929.41;5031056;28;20209;-24
2023/08/27 11:14:26;;;;;;;2.00;1.40;;;;;;;25.41;70.14;96921.72;5032868;28;20202;-27
2023/08/27 11:16:54;;;;;;;2.17;1.50;;;;;;;25.41;70.14;96919.13;5029943;28;20758;-23
2023/08/27 11:19:37;;;;;;;1.30;1.20;;;;;;;25.41;70.59;96918.25;5033071;28;20228;-23
2023/08/27 11:22:13;;;;;;;1.30;1.20;;;;;;;25.41;70.30;96926.84;5028841;28;20606;-23
2023/08/27 11:24:45;;;;;;;1.80;1.53;;;;;;;25.41;70.24;96928.56;5030099;28;20209;-23
2023/08/27 11:27:13;;;;;;;1.90;1.50;;;;;;;25.41;70.34;96923.41;5033901;28;20757;-23
2023/08/27 11:29:41;;;;;;;1.40;1.30;;;;;;;25.35;70.03;96903.66;5034735;28;20208;-24
2023/08/27 11:32:08;;;;;;;2.70;1.50;;;;;;;25.40;70.20;96917.38;5033485;28;20683;-32
2023/08/27 11:34:39;;;;;;;1.90;1.77;;;;;;;25.40;70.05;96921.69;5032407;28;20260;-23
2023/08/27 11:37:06;;;;;;;1.53;1.40;;;;;;;25.40;69.87;96914.81;5031862;28;20260;-24
2023/08/27 11:39:33;;;;;;;1.50;1.40;;;;;;;25.41;70.35;96916.56;5032236;28;20228;-23